Terminal Aerodrome Forecast
Issued by NWS

Home | Current Version | Previous Version | Graphics & Text | Print | Product List | Glossary On
Versions: 1 2 3 4 5 6 7 8 9 10 11 12 13 14 15 16
000
FTUS43 KBIS 182300
TAFDIK
TAF
KDIK 182325Z 1900/1924 18011KT P6SM VCSH BKN100 OVC220
      TEMPO 1900/1903 -SHRA BKN080
     FM190300 19007KT P6SM VCSH BKN100 OVC140
     FM191000 26009KT P6SM SCT150 SCT220
     FM191300 29013G18KT P6SM FEW140
     FM191700 29019G28KT P6SM FEW080=

USA.gov is the U.S. government's official web portal to all federal, state and local government web resources and services.